createdAt,value
2023-03-17T00:02:24.027Z,5.53
2023-03-17T00:04:52.504Z,3.30
2023-03-17T00:07:19.686Z,8.93
2023-03-17T00:09:46.834Z,3.53
2023-03-17T00:12:15.339Z,6.65
2023-03-17T00:14:44.479Z,4.18
2023-03-17T00:17:12.825Z,4.40
2023-03-17T00:19:40.274Z,3.78
2023-03-17T00:22:15.295Z,3.85
2023-03-17T00:24:42.560Z,3.92
2023-03-17T00:27:13.868Z,3.83
2023-03-17T00:29:41.113Z,4.82
2023-03-17T00:32:18.315Z,3.28
2023-03-17T00:34:46.270Z,4.70
2023-03-17T00:37:13.766Z,4.65
2023-03-17T00:39:40.998Z,3.92
2023-03-17T00:42:08.241Z,3.75
2023-03-17T00:44:35.324Z,3.38
2023-03-17T00:47:02.656Z,5.13
2023-03-17T00:49:29.817Z,3.28
2023-03-17T00:51:56.972Z,4.57
2023-03-17T00:54:24.134Z,4.05
2023-03-17T00:56:52.535Z,3.95
2023-03-17T00:59:26.114Z,4.93
2023-03-17T01:01:53.367Z,3.25
2023-03-17T01:04:20.594Z,4.25
2023-03-17T01:06:48.922Z,6.43
2023-03-17T01:09:20.250Z,2.95
2023-03-17T01:14:16.831Z,4.07
2023-03-17T01:16:44.794Z,3.42
2023-03-17T01:19:13.270Z,2.92
2023-03-17T01:21:40.812Z,5.20
2023-03-17T01:24:08.381Z,3.30
2023-03-17T01:26:36.018Z,4.63
2023-03-17T01:29:03.182Z,4.68
2023-03-17T01:31:30.489Z,5.32
2023-03-17T01:33:57.890Z,4.32
2023-03-17T01:36:26.844Z,4.78
2023-03-17T01:38:53.968Z,2.70
2023-03-17T01:41:21.179Z,6.50
2023-03-17T01:43:48.547Z,6.45
2023-03-17T01:46:21.464Z,2.13
2023-03-17T01:48:54.484Z,5.35
2023-03-17T01:51:27.724Z,2.92
2023-03-17T01:53:55.209Z,6.32
2023-03-17T01:56:23.649Z,2.92
2023-03-17T01:58:52.966Z,3.00
2023-03-17T02:01:21.844Z,2.63
2023-03-17T02:03:49.129Z,2.78
2023-03-17T02:06:16.913Z,2.67
2023-03-17T02:08:44.272Z,4.03
2023-03-17T02:11:11.472Z,4.30
2023-03-17T02:13:38.943Z,2.55
2023-03-17T02:16:07.166Z,2.42
2023-03-17T02:18:34.749Z,3.20
2023-03-17T02:21:20.498Z,2.78
2023-03-17T02:23:47.608Z,2.80
2023-03-17T02:26:14.885Z,3.90
2023-03-17T02:28:46.016Z,5.13
2023-03-17T02:31:13.288Z,2.75
2023-03-17T02:33:40.708Z,2.10
2023-03-17T02:36:09.545Z,4.30
2023-03-17T02:38:36.760Z,3.00
2023-03-17T02:41:03.909Z,3.97
2023-03-17T02:43:31.131Z,4.40
2023-03-17T02:45:58.244Z,3.05
2023-03-17T02:48:25.548Z,3.50
2023-03-17T02:50:52.687Z,3.08
2023-03-17T02:53:19.850Z,5.50
2023-03-17T02:55:47.024Z,3.97
2023-03-17T02:58:14.291Z,3.78
2023-03-17T03:00:41.501Z,3.45
2023-03-17T03:03:08.616Z,3.42
2023-03-17T03:05:36.031Z,3.28
2023-03-17T03:08:03.226Z,3.35
2023-03-17T03:10:30.917Z,2.88
2023-03-17T03:12:58.394Z,2.58
2023-03-17T03:15:25.474Z,2.40
2023-03-17T03:17:52.563Z,3.35
2023-03-17T03:20:20.945Z,2.00
2023-03-17T03:22:48.113Z,3.17
2023-03-17T03:25:15.233Z,2.75
2023-03-17T03:27:42.326Z,6.82
2023-03-17T03:30:10.476Z,3.38
2023-03-17T03:32:37.842Z,3.50
2023-03-17T03:35:05.264Z,3.65
2023-03-17T03:37:32.425Z,2.17
2023-03-17T03:39:59.567Z,2.38
2023-03-17T03:42:27.448Z,2.50
2023-03-17T03:44:54.558Z,4.05
2023-03-17T03:47:21.680Z,2.45
2023-03-17T03:49:48.871Z,3.33
2023-03-17T03:52:15.978Z,5.45
2023-03-17T03:54:43.050Z,4.03
2023-03-17T03:57:10.379Z,5.97
2023-03-17T03:59:37.754Z,5.70
2023-03-17T04:02:05.287Z,3.47
2023-03-17T04:04:32.836Z,2.72
2023-03-17T04:07:00.257Z,3.10
2023-03-17T04:09:27.396Z,1.90
2023-03-17T04:11:54.517Z,2.83
2023-03-17T04:14:21.685Z,3.42
2023-03-17T04:16:48.779Z,2.35
2023-03-17T04:19:16.411Z,2.90
2023-03-17T04:21:43.543Z,2.97
2023-03-17T04:24:10.645Z,2.75
2023-03-17T04:26:37.880Z,2.35
2023-03-17T04:29:08.035Z,2.63
2023-03-17T04:31:35.991Z,2.60
2023-03-17T04:34:03.146Z,4.25
2023-03-17T04:36:30.248Z,4.30
2023-03-17T04:38:57.428Z,2.47
2023-03-17T04:41:24.579Z,3.17
2023-03-17T04:43:52.035Z,5.65
2023-03-17T04:46:19.127Z,4.97
2023-03-17T04:48:46.456Z,3.47
2023-03-17T04:51:13.563Z,3.95
2023-03-17T04:53:40.664Z,4.60
2023-03-17T04:56:08.025Z,3.60
2023-03-17T04:58:35.186Z,4.45
2023-03-17T05:01:03.649Z,4.03
2023-03-17T05:03:31.053Z,4.25
2023-03-17T05:05:58.433Z,4.55
2023-03-17T05:08:26.622Z,4.03
2023-03-17T05:10:53.805Z,5.10
2023-03-17T05:13:21.036Z,4.47
2023-03-17T05:15:48.554Z,4.10
2023-03-17T05:18:16.398Z,4.00
2023-03-17T05:20:43.695Z,3.28
2023-03-17T05:23:11.303Z,4.75
2023-03-17T05:25:38.671Z,3.60
2023-03-17T05:28:07.021Z,4.70
2023-03-17T05:30:36.582Z,5.43
2023-03-17T05:33:03.892Z,3.97
2023-03-17T05:35:31.059Z,4.07
2023-03-17T05:37:58.177Z,4.68
2023-03-17T05:40:25.337Z,3.17
2023-03-17T05:42:52.421Z,3.25
2023-03-17T05:45:19.519Z,4.60
2023-03-17T05:47:47.581Z,6.28
2023-03-17T05:50:14.921Z,4.90
2023-03-17T05:52:42.107Z,4.75
2023-03-17T05:55:09.636Z,4.65
2023-03-17T05:57:36.711Z,5.45
2023-03-17T06:00:05.252Z,4.35
2023-03-17T06:02:32.863Z,4.70
2023-03-17T06:05:00.052Z,4.47
2023-03-17T06:07:31.227Z,6.03
2023-03-17T06:10:05.348Z,4.45
2023-03-17T06:12:32.775Z,4.45
2023-03-17T06:14:59.898Z,5.53
2023-03-17T06:17:27.062Z,5.40
2023-03-17T06:19:54.138Z,4.80
2023-03-17T06:22:21.213Z,4.20
2023-03-17T06:24:48.406Z,4.28
2023-03-17T06:27:15.532Z,4.40
2023-03-17T06:29:42.657Z,3.65
2023-03-17T06:32:20.438Z,6.35
2023-03-17T06:34:48.253Z,5.30
2023-03-17T06:37:16.528Z,4.68
2023-03-17T06:39:43.859Z,4.22
2023-03-17T06:42:10.955Z,4.43
2023-03-17T06:44:38.206Z,4.22
2023-03-17T06:47:05.381Z,4.22
2023-03-17T06:49:32.522Z,6.55
2023-03-17T06:51:59.991Z,5.05
2023-03-17T06:54:27.104Z,5.32
2023-03-17T06:56:54.407Z,5.78
2023-03-17T06:59:21.995Z,5.45
2023-03-17T07:01:49.556Z,4.57
2023-03-17T07:04:17.118Z,5.20
2023-03-17T07:06:44.965Z,4.88
2023-03-17T07:09:12.078Z,5.90
2023-03-17T07:11:39.244Z,4.75
2023-03-17T07:14:06.782Z,4.60
2023-03-17T07:16:34.066Z,5.47
2023-03-17T07:19:02.025Z,5.13
2023-03-17T07:21:29.235Z,4.53
2023-03-17T07:23:56.408Z,5.15
2023-03-17T07:26:23.540Z,6.18
2023-03-17T07:28:50.888Z,5.05
2023-03-17T07:31:18.152Z,5.45
2023-03-17T07:33:45.358Z,5.10
2023-03-17T07:36:13.230Z,7.38
2023-03-17T07:38:40.394Z,4.07
2023-03-17T07:41:10.113Z,5.00
2023-03-17T07:43:38.005Z,6.07
2023-03-17T07:46:06.377Z,4.03
2023-03-17T07:48:34.350Z,4.63
2023-03-17T07:51:01.536Z,5.05
2023-03-17T07:53:29.808Z,7.60
2023-03-17T07:55:56.940Z,6.75
2023-03-17T07:58:24.090Z,5.82
2023-03-17T08:00:51.827Z,4.10
2023-03-17T08:03:19.490Z,3.17
2023-03-17T08:05:47.244Z,6.65
2023-03-17T08:08:14.428Z,5.72
2023-03-17T08:10:41.549Z,5.07
2023-03-17T08:13:09.115Z,3.92
2023-03-17T08:15:36.733Z,3.88
2023-03-17T08:18:03.893Z,4.63
2023-03-17T08:20:31.797Z,4.72
2023-03-17T08:22:59.143Z,4.50
2023-03-17T08:25:26.352Z,6.65
2023-03-17T08:27:54.140Z,5.13
2023-03-17T08:30:21.590Z,5.78
2023-03-17T08:32:49.264Z,3.65
2023-03-17T08:35:17.214Z,5.38
2023-03-17T08:37:44.867Z,4.30
2023-03-17T08:40:12.808Z,5.60
2023-03-17T08:42:41.005Z,6.15
2023-03-17T08:45:09.902Z,4.85
2023-03-17T08:47:38.135Z,4.97
2023-03-17T08:50:08.560Z,6.30
2023-03-17T08:52:36.447Z,4.88
2023-03-17T08:55:03.874Z,4.38
2023-03-17T08:57:31.568Z,6.28
2023-03-17T08:59:59.005Z,6.28
2023-03-17T09:02:26.704Z,5.85
2023-03-17T09:04:54.291Z,5.13
2023-03-17T09:07:21.733Z,6.22
2023-03-17T09:09:49.364Z,6.97
2023-03-17T09:12:16.968Z,5.30
2023-03-17T09:14:44.967Z,5.32
2023-03-17T09:17:14.443Z,4.03
2023-03-17T09:19:41.948Z,3.20
2023-03-17T09:22:13.344Z,5.90
2023-03-17T09:24:40.549Z,4.45
2023-03-17T09:27:10.027Z,4.57
2023-03-17T09:29:37.468Z,3.95
2023-03-17T09:32:04.707Z,4.45
2023-03-17T09:34:32.038Z,4.57
2023-03-17T09:36:59.781Z,4.93
2023-03-17T09:39:27.542Z,4.75
2023-03-17T09:41:57.044Z,4.65
2023-03-17T09:44:27.109Z,4.65
2023-03-17T09:46:57.163Z,5.53
2023-03-17T09:49:29.401Z,3.95
2023-03-17T09:51:56.916Z,3.53
2023-03-17T09:54:29.442Z,3.50
2023-03-17T09:57:17.939Z,7.63
2023-03-17T09:59:47.429Z,4.28
2023-03-17T10:02:25.880Z,3.95
2023-03-17T10:04:53.254Z,7.45
2023-03-17T10:07:24.181Z,4.65
2023-03-17T10:09:57.450Z,6.22
2023-03-17T10:12:43.609Z,5.20
2023-03-17T10:15:17.080Z,4.43
2023-03-17T10:17:44.296Z,4.32
2023-03-17T10:20:26.641Z,6.57
2023-03-17T10:22:58.304Z,7.03
2023-03-17T10:25:36.085Z,3.58
2023-03-17T10:28:09.024Z,6.75
2023-03-17T10:30:36.354Z,3.40
2023-03-17T10:33:06.984Z,5.70
2023-03-17T10:35:36.366Z,4.55
2023-03-17T10:38:14.969Z,3.67
2023-03-17T10:40:42.719Z,4.13
2023-03-17T10:43:15.464Z,4.63
2023-03-17T10:45:47.815Z,4.93
2023-03-17T10:48:19.266Z,4.20
2023-03-17T10:50:49.348Z,4.68
2023-03-17T10:53:28.461Z,4.20
2023-03-17T10:56:02.454Z,5.80
2023-03-17T10:58:29.583Z,4.97
2023-03-17T11:00:58.502Z,3.55
2023-03-17T11:03:28.100Z,4.45
2023-03-17T11:06:01.551Z,8.32
2023-03-17T11:08:54.789Z,3.80
2023-03-17T11:11:26.980Z,4.72
2023-03-17T11:14:04.287Z,4.40
2023-03-17T11:16:35.780Z,6.10
2023-03-17T11:19:04.194Z,4.85
2023-03-17T11:21:37.312Z,5.95
2023-03-17T11:24:10.471Z,4.82
2023-03-17T11:26:50.611Z,4.03
2023-03-17T11:29:23.877Z,4.32
2023-03-17T11:32:03.061Z,10.55
2023-03-17T11:34:34.009Z,4.07
2023-03-17T11:37:13.273Z,5.75
2023-03-17T11:39:56.590Z,4.75
2023-03-17T11:42:23.723Z,5.88
2023-03-17T11:45:09.882Z,4.85
2023-03-17T11:47:37.263Z,5.28
2023-03-17T11:50:12.225Z,4.30
2023-03-17T11:52:45.667Z,4.07
2023-03-17T11:55:45.453Z,5.43
2023-03-17T11:58:16.868Z,3.65
2023-03-17T12:00:50.742Z,4.55
2023-03-17T12:03:26.698Z,2.80
2023-03-17T12:05:56.210Z,5.97
2023-03-17T12:08:32.336Z,3.38
2023-03-17T12:11:01.050Z,3.72
2023-03-17T12:13:28.151Z,3.65
2023-03-17T12:16:04.467Z,3.92
2023-03-17T12:18:37.511Z,8.27
2023-03-17T12:21:20.644Z,5.50
2023-03-17T12:23:49.602Z,7.57
2023-03-17T12:26:19.643Z,4.63
2023-03-17T12:28:50.278Z,2.72
2023-03-17T12:31:22.782Z,3.42
2023-03-17T12:34:09.293Z,6.35
2023-03-17T12:36:38.101Z,4.30
2023-03-17T12:39:16.293Z,4.90
2023-03-17T12:41:50.479Z,4.28
2023-03-17T12:44:41.903Z,5.90
2023-03-17T12:47:21.187Z,6.25
2023-03-17T12:49:57.581Z,3.88
2023-03-17T12:52:43.498Z,3.85
2023-03-17T12:55:14.258Z,5.35
2023-03-17T12:57:43.779Z,3.67
2023-03-17T13:00:25.216Z,4.18
2023-03-17T13:05:29.112Z,5.80
2023-03-17T13:07:57.541Z,8.35
2023-03-17T13:10:50.559Z,6.30
2023-03-17T13:13:36.436Z,4.68
2023-03-17T13:16:05.724Z,4.50
2023-03-17T13:18:36.010Z,5.25
2023-03-17T13:21:04.109Z,6.03
2023-03-17T13:23:50.301Z,3.80
2023-03-17T13:26:21.610Z,3.78
2023-03-17T13:31:30.724Z,5.00
2023-03-17T13:34:02.835Z,5.18
2023-03-17T13:36:33.622Z,5.85
2023-03-17T13:39:18.264Z,8.10
2023-03-17T13:42:11.983Z,4.18
2023-03-17T13:44:44.450Z,5.63
2023-03-17T13:47:27.078Z,4.43
2023-03-17T13:49:58.952Z,5.53
2023-03-17T13:52:56.305Z,6.85
2023-03-17T13:55:26.202Z,5.90
2023-03-17T13:58:16.482Z,6.05
2023-03-17T14:00:48.988Z,5.78
2023-03-17T14:03:16.452Z,4.82
2023-03-17T14:05:47.070Z,4.90
2023-03-17T14:08:32.385Z,5.07
2023-03-17T14:11:01.074Z,5.05
2023-03-17T14:13:35.092Z,4.47
2023-03-17T14:16:05.406Z,4.90
2023-03-17T14:18:37.687Z,7.33
2023-03-17T14:21:10.556Z,5.13
2023-03-17T14:23:38.694Z,6.72
2023-03-17T14:26:07.785Z,5.25
2023-03-17T14:28:35.578Z,5.35
2023-03-17T14:31:03.985Z,6.63
2023-03-17T14:33:33.686Z,6.60
2023-03-17T14:36:02.363Z,11.73
2023-03-17T14:38:31.231Z,4.93
2023-03-17T14:41:18.278Z,5.78
2023-03-17T14:43:45.901Z,5.25
2023-03-17T14:46:26.937Z,7.18
2023-03-17T14:49:05.440Z,7.55
2023-03-17T14:51:37.072Z,8.82
2023-03-17T14:54:10.771Z,5.93
2023-03-17T14:56:39.238Z,7.22
2023-03-17T14:59:27.180Z,5.93
2023-03-17T15:01:55.648Z,7.53
2023-03-17T15:04:24.786Z,7.20
2023-03-17T15:06:58.110Z,6.25
2023-03-17T15:09:27.207Z,5.88
2023-03-17T15:11:56.262Z,6.38
2023-03-17T15:14:31.065Z,5.88
2023-03-17T15:16:58.289Z,5.43
2023-03-17T15:19:28.937Z,9.73
2023-03-17T15:21:59.900Z,6.22
2023-03-17T15:24:44.025Z,7.10
2023-03-17T15:27:15.890Z,5.80
2023-03-17T15:29:43.012Z,5.97
2023-03-17T15:32:12.208Z,8.32
2023-03-17T15:34:39.345Z,5.75
2023-03-17T15:37:10.511Z,8.80
2023-03-17T15:39:37.881Z,6.97
2023-03-17T15:42:05.598Z,6.68
2023-03-17T15:44:32.669Z,9.57
2023-03-17T15:46:59.740Z,6.32
2023-03-17T15:49:27.112Z,6.05
2023-03-17T15:51:54.342Z,7.68
2023-03-17T15:54:21.617Z,5.88
2023-03-17T15:56:48.787Z,5.65
2023-03-17T15:59:16.144Z,6.47
2023-03-17T16:01:43.353Z,5.85
2023-03-17T16:04:10.805Z,7.80
2023-03-17T16:06:37.946Z,7.50
2023-03-17T16:09:07.370Z,7.45
2023-03-17T16:11:34.519Z,9.45
2023-03-17T16:14:01.601Z,9.13
2023-03-17T16:16:35.853Z,6.90
2023-03-17T16:19:04.695Z,8.38
2023-03-17T16:21:32.346Z,8.27
2023-03-17T16:23:59.850Z,5.93
2023-03-17T16:26:27.036Z,5.65
2023-03-17T16:28:54.189Z,6.25
2023-03-17T16:31:22.964Z,5.55
2023-03-17T16:33:50.711Z,13.70
2023-03-17T16:36:19.024Z,8.88
2023-03-17T16:38:47.241Z,7.53
2023-03-17T16:41:17.249Z,6.97
2023-03-17T16:43:45.123Z,9.07
2023-03-17T16:46:12.639Z,7.18
2023-03-17T16:48:39.855Z,7.07
2023-03-17T16:51:08.156Z,6.70
2023-03-17T16:53:35.987Z,8.73
2023-03-17T16:56:03.345Z,6.70
2023-03-17T16:58:32.328Z,6.80
2023-03-17T17:01:01.245Z,7.68
2023-03-17T17:03:28.980Z,9.77
2023-03-17T17:05:56.352Z,7.22
2023-03-17T17:08:23.579Z,8.30
2023-03-17T17:10:51.182Z,7.70
2023-03-17T17:13:18.291Z,9.57
2023-03-17T17:15:45.708Z,6.85
2023-03-17T17:18:24.402Z,6.90
2023-03-17T17:20:52.220Z,7.65
2023-03-17T17:23:20.721Z,8.73
2023-03-17T17:25:48.253Z,8.70
2023-03-17T17:28:16.168Z,7.88
2023-03-17T17:30:45.239Z,6.93
2023-03-17T17:33:12.765Z,8.23
2023-03-17T17:35:40.244Z,8.27
2023-03-17T17:38:12.703Z,9.07
2023-03-17T17:40:39.770Z,9.95
2023-03-17T17:43:07.116Z,6.88
2023-03-17T17:45:34.274Z,7.30
2023-03-17T17:48:01.341Z,8.90
2023-03-17T17:50:30.879Z,9.90
2023-03-17T17:53:04.768Z,8.57
2023-03-17T17:55:32.786Z,9.35
2023-03-17T17:58:00.117Z,8.25
2023-03-17T18:00:27.512Z,7.07
2023-03-17T18:02:54.681Z,7.90
2023-03-17T18:05:21.887Z,8.15
2023-03-17T18:07:48.982Z,7.35
2023-03-17T18:10:19.756Z,6.90
2023-03-17T18:12:46.874Z,8.95
2023-03-17T18:15:13.987Z,7.72
2023-03-17T18:17:42.942Z,7.43
2023-03-17T18:20:14.388Z,11.43
2023-03-17T18:22:41.595Z,7.65
2023-03-17T18:25:10.054Z,12.50
2023-03-17T18:27:40.505Z,9.43
2023-03-17T18:30:08.789Z,7.97
2023-03-17T18:32:36.461Z,9.38
2023-03-17T18:35:07.210Z,7.25
2023-03-17T18:37:34.556Z,8.25
2023-03-17T18:40:18.954Z,10.90
2023-03-17T18:42:47.009Z,8.77
2023-03-17T18:45:14.246Z,10.60
2023-03-17T18:47:41.976Z,9.38
2023-03-17T18:50:10.681Z,9.38
2023-03-17T18:52:39.502Z,10.95
2023-03-17T18:55:07.269Z,9.98
2023-03-17T18:57:34.555Z,11.82
2023-03-17T19:00:01.727Z,10.20
2023-03-17T19:02:29.113Z,8.90
2023-03-17T19:04:56.211Z,10.75
2023-03-17T19:07:23.383Z,8.98
2023-03-17T19:09:50.957Z,10.55
2023-03-17T19:12:18.642Z,11.88
2023-03-17T19:14:46.042Z,10.52
2023-03-17T19:17:13.276Z,9.55
2023-03-17T19:19:41.410Z,9.77
2023-03-17T19:22:09.693Z,11.40
2023-03-17T19:24:37.610Z,10.60
2023-03-17T19:27:05.204Z,12.55
2023-03-17T19:29:33.418Z,12.00
2023-03-17T19:32:00.817Z,10.50
2023-03-17T19:34:27.957Z,10.30
2023-03-17T19:36:55.657Z,9.85
2023-03-17T19:39:22.840Z,10.23
2023-03-17T19:41:53.270Z,13.27
2023-03-17T19:44:21.298Z,9.93
2023-03-17T19:46:48.595Z,11.13
2023-03-17T19:49:15.931Z,10.35
2023-03-17T19:51:43.707Z,14.13
2023-03-17T19:54:11.191Z,13.38
2023-03-17T19:56:38.764Z,12.43
2023-03-17T19:59:06.936Z,12.80
2023-03-17T20:01:34.105Z,11.40
2023-03-17T20:04:01.324Z,13.27
2023-03-17T20:06:29.507Z,14.65
2023-03-17T20:08:56.598Z,14.52
2023-03-17T20:11:23.758Z,14.52
2023-03-17T20:13:51.146Z,12.82
2023-03-17T20:16:18.845Z,14.65
2023-03-17T20:18:46.079Z,16.38
2023-03-17T20:21:13.779Z,14.30
2023-03-17T20:23:40.951Z,13.88
2023-03-17T20:26:09.188Z,14.07
2023-03-17T20:28:36.649Z,16.13
2023-03-17T20:31:04.709Z,12.93
2023-03-17T20:33:33.448Z,11.77
2023-03-17T20:36:01.932Z,20.08
2023-03-17T20:38:29.285Z,14.10
2023-03-17T20:41:04.794Z,18.73
2023-03-17T20:43:34.157Z,12.57
2023-03-17T20:46:01.728Z,15.40
2023-03-17T20:48:30.151Z,16.80
2023-03-17T20:50:58.249Z,15.77
2023-03-17T20:53:25.336Z,12.82
2023-03-17T20:55:52.530Z,20.00
2023-03-17T20:58:19.979Z,13.90
2023-03-17T21:00:49.236Z,16.02
2023-03-17T21:03:18.005Z,17.08
2023-03-17T21:05:45.784Z,15.63
2023-03-17T21:08:13.151Z,19.63
2023-03-17T21:10:40.765Z,17.10
2023-03-17T21:13:07.961Z,17.48
2023-03-17T21:15:35.802Z,18.70
2023-03-17T21:18:03.022Z,20.15
2023-03-17T21:20:30.493Z,18.40
2023-03-17T21:22:57.848Z,17.75
2023-03-17T21:25:25.479Z,17.67
2023-03-17T21:27:52.817Z,20.45
2023-03-17T21:30:19.948Z,17.80
2023-03-17T21:32:47.145Z,18.23
2023-03-17T21:35:14.627Z,20.45
2023-03-17T21:37:41.792Z,20.63
2023-03-17T21:40:09.267Z,19.75
2023-03-17T21:42:36.365Z,19.63
2023-03-17T21:45:03.513Z,18.60
2023-03-17T21:47:30.793Z,18.17
2023-03-17T21:49:58.047Z,17.20
2023-03-17T21:52:26.024Z,18.83
2023-03-17T21:54:53.508Z,17.45
2023-03-17T21:57:20.631Z,14.80
2023-03-17T21:59:48.048Z,15.38
2023-03-17T22:02:18.214Z,18.77
2023-03-17T22:04:46.741Z,14.68
2023-03-17T22:07:14.342Z,15.82
2023-03-17T22:09:41.924Z,19.92
2023-03-17T22:12:09.175Z,17.88
2023-03-17T22:14:36.354Z,17.45
2023-03-17T22:17:05.463Z,16.48
2023-03-17T22:19:32.757Z,15.77
2023-03-17T22:21:59.914Z,16.58
2023-03-17T22:24:27.150Z,12.20
2023-03-17T22:26:55.586Z,19.30
2023-03-17T22:29:22.767Z,14.80
2023-03-17T22:31:50.007Z,14.32
2023-03-17T22:34:17.341Z,17.45
2023-03-17T22:36:44.431Z,15.75
2023-03-17T22:39:11.976Z,15.15
2023-03-17T22:41:39.239Z,17.13
2023-03-17T22:44:08.259Z,17.08
2023-03-17T22:46:36.013Z,15.90
2023-03-17T22:49:03.115Z,15.95
2023-03-17T22:51:30.484Z,19.08
2023-03-17T22:53:57.725Z,15.90
2023-03-17T22:56:26.018Z,15.82
2023-03-17T22:58:53.462Z,18.42
2023-03-17T23:01:22.413Z,17.55
2023-03-17T23:03:50.144Z,19.48
2023-03-17T23:06:17.756Z,17.77
2023-03-17T23:08:45.916Z,15.98
2023-03-17T23:11:18.679Z,15.93
2023-03-17T23:13:47.139Z,17.48
2023-03-17T23:16:14.765Z,17.95
2023-03-17T23:18:44.138Z,20.75
2023-03-17T23:23:40.789Z,16.27
2023-03-17T23:26:09.264Z,16.55
2023-03-17T23:28:36.827Z,17.08
2023-03-17T23:31:04.390Z,17.73
2023-03-17T23:33:31.544Z,18.65
2023-03-17T23:35:58.848Z,18.73
2023-03-17T23:38:25.944Z,22.75
2023-03-17T23:40:56.057Z,13.93
2023-03-17T23:43:23.407Z,18.90
2023-03-17T23:45:54.037Z,19.13
2023-03-17T23:48:21.275Z,19.23
2023-03-17T23:50:51.603Z,18.00
2023-03-17T23:53:19.145Z,16.20
2023-03-17T23:55:46.798Z,18.85
2023-03-17T23:58:14.426Z,16.75
